Terminal Aerodrome Forecast
Issued by NWS

Home | Current Version | Previous Version | Text Only | Print | Product List | Glossary On
Versions: 1 2 3 4 5 6 7 8 9 10 11 12
396
FTUS46 KPDT 301120
TAFALW
TAF
KALW 301120Z 3012/3112 10007KT P6SM BKN150
     FM301700 24005KT P6SM SCT070 BKN120
     FM302300 19008G15KT P6SM VCTS SCT060CB OVC090
     FM310600 19007KT P6SM VCSH SCT060 OVC100=

USA.gov is the U.S. government's official web portal to all federal, state and local government web resources and services.